Terminal Aerodrome Forecast
Issued by NWS

Home | Current Version | Previous Version | Text Only | Print | Product List | Glossary On
Versions: 1 2 3 4 5 6 7 8 9 10 11 12 13 14 15 16 17 18 19 20 21
000
FTUS41 KOKX 251700
TAFSWF
TAF
KSWF 251736Z 2518/2624 29016G25KT P6SM BKN050
     FM252100 29014G22KT P6SM SCT050
     FM252300 29010G18KT P6SM FEW050
     FM260500 27006KT P6SM SKC
     FM261400 28009KT P6SM FEW025
     FM262100 27007KT P6SM SKC
      AMD NOT SKED=

USA.gov is the U.S. government's official web portal to all federal, state and local government web resources and services.